createdAt,value
2023-03-04T00:01:32.844Z,34.63
2023-03-04T00:04:00.832Z,34.20
2023-03-04T00:06:28.904Z,31.33
2023-03-04T00:08:56.958Z,38.50
2023-03-04T00:11:24.953Z,39.03
2023-03-04T00:13:53.564Z,31.93
2023-03-04T00:16:21.547Z,35.37
2023-03-04T00:18:50.975Z,29.60
2023-03-04T00:21:18.866Z,41.00
2023-03-04T00:23:46.872Z,33.63
2023-03-04T00:26:14.817Z,36.23
2023-03-04T00:28:42.759Z,33.23
2023-03-04T00:31:11.469Z,38.53
2023-03-04T00:33:40.324Z,31.63
2023-03-04T00:36:10.241Z,29.97
2023-03-04T00:38:38.302Z,36.27
2023-03-04T00:41:06.450Z,35.53
2023-03-04T00:43:34.431Z,30.33
2023-03-04T00:46:02.546Z,31.03
2023-03-04T00:48:30.466Z,31.70
2023-03-04T00:50:58.701Z,31.20
2023-03-04T00:53:28.031Z,33.67
2023-03-04T00:55:55.918Z,29.77
2023-03-04T00:58:23.872Z,33.93
2023-03-04T01:00:51.916Z,30.87
2023-03-04T01:03:19.973Z,38.90
2023-03-04T01:05:47.878Z,32.60
2023-03-04T01:08:15.800Z,38.47
2023-03-04T01:10:45.434Z,32.80
2023-03-04T01:13:13.401Z,28.80
2023-03-04T01:15:41.436Z,34.30
2023-03-04T01:18:09.404Z,36.13
2023-03-04T01:20:37.343Z,37.43
2023-03-04T01:23:05.326Z,32.07
2023-03-04T01:25:33.219Z,34.67
2023-03-04T01:28:02.620Z,33.70
2023-03-04T01:30:30.640Z,33.30
2023-03-04T01:32:59.189Z,29.50
2023-03-04T01:35:27.271Z,29.60
2023-03-04T01:37:55.276Z,34.17
2023-03-04T01:40:23.428Z,35.00
2023-03-04T01:42:51.930Z,36.00
2023-03-04T01:45:21.796Z,31.50
2023-03-04T01:47:51.218Z,36.03
2023-03-04T01:50:23.793Z,31.90
2023-03-04T01:52:52.028Z,36.47
2023-03-04T01:55:21.588Z,37.50
2023-03-04T01:57:51.300Z,31.70
2023-03-04T02:00:32.128Z,28.20
2023-03-04T02:03:02.290Z,32.17
2023-03-04T02:05:31.791Z,32.30
2023-03-04T02:08:01.765Z,35.37
2023-03-04T02:10:30.419Z,32.50
2023-03-04T02:12:58.369Z,36.27
2023-03-04T02:15:26.841Z,30.27
2023-03-04T02:17:56.369Z,40.53
2023-03-04T02:20:37.149Z,37.10
2023-03-04T02:23:10.635Z,29.17
2023-03-04T02:25:49.949Z,32.57
2023-03-04T02:28:19.453Z,34.57
2023-03-04T02:30:47.907Z,33.10
2023-03-04T02:33:18.596Z,38.50
2023-03-04T02:35:47.641Z,33.30
2023-03-04T02:38:15.681Z,33.90
2023-03-04T02:40:47.612Z,35.67
2023-03-04T02:43:16.075Z,34.47
2023-03-04T02:45:47.376Z,36.00
2023-03-04T02:48:19.138Z,32.70
2023-03-04T02:50:49.736Z,36.63
2023-03-04T02:53:18.078Z,36.00
2023-03-04T02:55:46.310Z,29.77
2023-03-04T02:58:14.862Z,32.03
2023-03-04T03:00:43.257Z,36.40
2023-03-04T03:03:12.655Z,35.80
2023-03-04T03:05:41.126Z,32.53
2023-03-04T03:08:09.535Z,36.63
2023-03-04T03:10:37.620Z,30.90
2023-03-04T03:13:05.588Z,42.50
2023-03-04T03:15:33.578Z,33.77
2023-03-04T03:18:01.524Z,37.00
2023-03-04T03:20:30.791Z,37.40
2023-03-04T03:22:58.666Z,187.80
2023-03-04T03:25:26.577Z,41.93
2023-03-04T03:27:54.532Z,34.70
2023-03-04T03:30:22.609Z,33.23
2023-03-04T03:32:50.721Z,37.40
2023-03-04T03:35:19.327Z,41.03
2023-03-04T03:37:49.929Z,35.23
2023-03-04T03:40:18.073Z,33.87
2023-03-04T03:42:47.073Z,34.70
2023-03-04T03:45:15.175Z,37.13
2023-03-04T03:47:43.083Z,35.60
2023-03-04T03:50:12.067Z,31.73
2023-03-04T03:52:40.028Z,31.47
2023-03-04T03:55:10.352Z,32.10
2023-03-04T03:57:38.320Z,37.60
2023-03-04T04:00:07.726Z,33.17
2023-03-04T04:02:35.866Z,31.90
2023-03-04T04:05:03.899Z,32.37
2023-03-04T04:07:31.789Z,37.93
2023-03-04T04:09:59.717Z,31.70
2023-03-04T04:12:29.168Z,28.70
2023-03-04T04:14:57.178Z,29.70
2023-03-04T04:17:25.188Z,35.23
2023-03-04T04:19:53.352Z,30.33
2023-03-04T04:22:22.074Z,30.20
2023-03-04T04:24:50.131Z,29.43
2023-03-04T04:27:18.304Z,27.47
2023-03-04T04:29:47.650Z,32.53
2023-03-04T04:32:15.632Z,28.30
2023-03-04T04:34:43.530Z,27.37
2023-03-04T04:37:11.413Z,28.30
2023-03-04T04:39:39.717Z,35.40
2023-03-04T04:42:07.653Z,26.90
2023-03-04T04:44:36.246Z,31.37
2023-03-04T04:47:06.298Z,24.17
2023-03-04T04:49:34.312Z,26.87
2023-03-04T04:52:02.595Z,28.03
2023-03-04T04:54:30.580Z,27.43
2023-03-04T04:56:58.613Z,26.60
2023-03-04T04:59:26.593Z,24.70
2023-03-04T05:01:54.776Z,30.20
2023-03-04T05:04:24.092Z,29.57
2023-03-04T05:06:52.070Z,31.00
2023-03-04T05:09:20.869Z,31.90
2023-03-04T05:11:48.804Z,32.67
2023-03-04T05:14:16.755Z,33.17
2023-03-04T05:16:44.666Z,31.63
2023-03-04T05:19:12.645Z,37.00
2023-03-04T05:21:42.065Z,38.03
2023-03-04T05:24:10.233Z,35.80
2023-03-04T05:26:38.271Z,43.37
2023-03-04T05:29:06.307Z,36.10
2023-03-04T05:31:34.379Z,33.20
2023-03-04T05:34:02.334Z,34.00
2023-03-04T05:36:30.236Z,31.07
2023-03-04T05:38:59.893Z,36.43
2023-03-04T05:41:27.858Z,34.30
2023-03-04T05:43:56.490Z,43.37
2023-03-04T05:46:26.113Z,36.80
2023-03-04T05:48:54.654Z,39.40
2023-03-04T05:51:23.180Z,40.10
2023-03-04T05:53:51.181Z,42.97
2023-03-04T05:56:21.883Z,42.83
2023-03-04T05:58:50.016Z,42.33
2023-03-04T06:01:18.508Z,41.60
2023-03-04T06:03:48.473Z,42.90
2023-03-04T06:06:16.509Z,44.83
2023-03-04T06:08:44.468Z,48.10
2023-03-04T06:11:12.385Z,54.23
2023-03-04T06:13:41.765Z,50.40
2023-03-04T06:16:10.946Z,46.63
2023-03-04T06:18:39.085Z,43.57
2023-03-04T06:21:07.252Z,43.03
2023-03-04T06:23:35.285Z,46.90
2023-03-04T06:26:03.361Z,47.10
2023-03-04T06:28:32.404Z,52.70
2023-03-04T06:31:01.898Z,42.33
2023-03-04T06:33:29.912Z,49.93
2023-03-04T06:35:58.597Z,49.73
2023-03-04T06:38:27.314Z,46.60
2023-03-04T06:40:57.477Z,50.60
2023-03-04T06:43:25.790Z,43.03
2023-03-04T06:45:55.177Z,39.50
2023-03-04T06:48:24.697Z,43.07
2023-03-04T06:50:52.772Z,46.00
2023-03-04T06:53:20.811Z,37.27
2023-03-04T06:55:49.542Z,36.57
2023-03-04T06:58:18.141Z,42.57
2023-03-04T07:00:46.431Z,44.77
2023-03-04T07:03:14.777Z,42.60
2023-03-04T07:05:45.349Z,47.80
2023-03-04T07:08:13.427Z,41.97
2023-03-04T07:10:41.510Z,39.40
2023-03-04T07:13:09.517Z,43.67
2023-03-04T07:15:38.772Z,44.40
2023-03-04T07:18:06.824Z,43.60
2023-03-04T07:20:34.871Z,39.10
2023-03-04T07:23:04.177Z,36.03
2023-03-04T07:25:32.235Z,34.80
2023-03-04T07:28:00.220Z,41.13
2023-03-04T07:30:28.239Z,38.27
2023-03-04T07:32:58.914Z,36.20
2023-03-04T07:35:27.148Z,49.83
2023-03-04T07:37:55.126Z,37.87
2023-03-04T07:40:24.960Z,40.23
2023-03-04T07:42:53.512Z,33.77
2023-03-04T07:45:21.812Z,32.00
2023-03-04T07:47:49.904Z,38.70
2023-03-04T07:50:18.435Z,33.00
2023-03-04T07:52:48.577Z,30.80
2023-03-04T07:55:17.600Z,28.10
2023-03-04T07:57:48.612Z,33.00
2023-03-04T08:00:19.337Z,37.90
2023-03-04T08:02:47.477Z,22.70
2023-03-04T08:05:15.573Z,27.10
2023-03-04T08:07:43.459Z,25.90
2023-03-04T08:10:12.553Z,19.90
2023-03-04T08:12:40.595Z,33.13
2023-03-04T08:15:12.186Z,20.67
2023-03-04T08:17:40.242Z,28.00
2023-03-04T08:20:09.614Z,16.90
2023-03-04T08:22:37.536Z,27.63
2023-03-04T08:25:06.294Z,24.77
2023-03-04T08:27:34.408Z,19.40
2023-03-04T08:30:02.349Z,25.10
2023-03-04T08:32:31.760Z,37.73
2023-03-04T08:35:02.295Z,16.63
2023-03-04T08:37:31.033Z,18.53
2023-03-04T08:39:59.013Z,19.33
2023-03-04T08:42:27.084Z,16.57
2023-03-04T08:44:55.057Z,21.80
2023-03-04T08:47:22.988Z,19.67
2023-03-04T08:49:52.250Z,20.50
2023-03-04T08:52:20.229Z,23.60
2023-03-04T08:54:48.927Z,33.50
2023-03-04T08:57:16.862Z,27.20
2023-03-04T08:59:44.830Z,19.80
2023-03-04T09:02:12.765Z,22.40
2023-03-04T09:04:40.823Z,20.67
2023-03-04T09:07:10.122Z,19.10
2023-03-04T09:09:38.145Z,19.03
2023-03-04T09:12:06.502Z,23.73
2023-03-04T09:14:35.887Z,18.33
2023-03-04T09:17:04.415Z,18.30
2023-03-04T09:19:32.443Z,15.40
2023-03-04T09:22:00.402Z,24.23
2023-03-04T09:24:29.656Z,29.90
2023-03-04T09:26:57.796Z,15.37
2023-03-04T09:29:25.824Z,18.00
2023-03-04T09:31:53.701Z,37.10
2023-03-04T09:34:21.675Z,17.20
2023-03-04T09:36:49.622Z,16.90
2023-03-04T09:39:17.531Z,20.73
2023-03-04T09:41:49.714Z,17.20
2023-03-04T09:44:24.158Z,20.40
2023-03-04T09:46:52.847Z,20.17
2023-03-04T09:49:23.169Z,19.40
2023-03-04T09:52:03.887Z,22.97
2023-03-04T09:54:55.937Z,19.43
2023-03-04T09:57:31.232Z,20.43
2023-03-04T10:00:08.386Z,18.23
2023-03-04T10:02:45.888Z,17.57
2023-03-04T10:05:18.810Z,17.90
2023-03-04T10:07:51.593Z,17.37
2023-03-04T10:10:26.524Z,20.60
2023-03-04T10:12:56.835Z,18.97
2023-03-04T10:15:32.776Z,20.07
2023-03-04T10:18:09.140Z,20.23
2023-03-04T10:20:50.416Z,16.37
2023-03-04T10:23:23.345Z,15.57
2023-03-04T10:25:54.216Z,19.10
2023-03-04T10:28:26.546Z,24.73
2023-03-04T10:31:00.846Z,21.23
2023-03-04T10:33:31.513Z,18.93
2023-03-04T10:36:03.729Z,21.30
2023-03-04T10:38:33.580Z,27.70
2023-03-04T10:41:01.962Z,21.43
2023-03-04T10:43:31.446Z,21.90
2023-03-04T10:46:01.139Z,20.10
2023-03-04T10:48:30.954Z,24.63
2023-03-04T10:51:13.534Z,31.20
2023-03-04T10:53:43.959Z,17.73
2023-03-04T10:56:32.053Z,20.80
2023-03-04T10:59:40.462Z,24.10
2023-03-04T11:02:23.976Z,23.60
2023-03-04T11:04:56.099Z,19.97
2023-03-04T11:07:26.048Z,21.40
2023-03-04T11:09:56.055Z,20.47
2023-03-04T11:12:34.352Z,24.83
2023-03-04T11:15:05.030Z,23.00
2023-03-04T11:17:44.500Z,22.57
2023-03-04T11:20:26.191Z,24.10
2023-03-04T11:22:56.703Z,25.63
2023-03-04T11:25:28.394Z,27.13
2023-03-04T11:28:01.297Z,24.43
2023-03-04T11:30:42.355Z,23.13
2023-03-04T11:33:27.617Z,19.63
2023-03-04T11:36:05.022Z,21.43
2023-03-04T11:38:37.556Z,22.60
2023-03-04T11:41:10.732Z,24.93
2023-03-04T11:43:40.118Z,19.97
2023-03-04T11:46:43.756Z,23.50
2023-03-04T11:49:49.890Z,23.87
2023-03-04T11:52:28.021Z,19.40
2023-03-04T11:55:17.459Z,23.70
2023-03-04T11:57:56.050Z,21.03
2023-03-04T12:00:35.760Z,21.93
2023-03-04T12:03:35.910Z,21.50
2023-03-04T12:06:11.827Z,24.70
2023-03-04T12:09:01.565Z,22.07
2023-03-04T12:11:40.465Z,19.27
2023-03-04T12:14:24.877Z,18.40
2023-03-04T12:17:38.502Z,17.57
2023-03-04T12:20:29.043Z,19.60
2023-03-04T12:23:05.417Z,17.03
2023-03-04T12:25:40.879Z,19.53
2023-03-04T12:28:22.170Z,20.97
2023-03-04T12:31:05.375Z,21.53
2023-03-04T12:33:46.172Z,25.53
2023-03-04T12:36:24.585Z,18.10
2023-03-04T12:39:01.679Z,21.80
2023-03-04T12:41:47.774Z,16.70
2023-03-04T12:44:18.164Z,15.37
2023-03-04T12:47:06.913Z,15.27
2023-03-04T12:49:56.565Z,20.00
2023-03-04T12:52:36.234Z,17.00
2023-03-04T12:55:11.968Z,13.17
2023-03-04T12:57:40.732Z,13.77
2023-03-04T13:00:21.460Z,12.20
2023-03-04T13:02:59.277Z,12.20
2023-03-04T13:05:40.290Z,12.60
2023-03-04T13:08:16.981Z,13.77
2023-03-04T13:10:46.260Z,12.37
2023-03-04T13:13:36.217Z,13.03
2023-03-04T13:16:06.675Z,16.23
2023-03-04T13:18:36.099Z,13.17
2023-03-04T13:21:19.011Z,13.20
2023-03-04T13:23:47.004Z,11.47
2023-03-04T13:26:23.577Z,12.07
2023-03-04T13:29:09.789Z,12.50
2023-03-04T13:31:59.424Z,12.20
2023-03-04T13:34:46.790Z,16.40
2023-03-04T13:37:35.432Z,15.60
2023-03-04T13:40:40.318Z,13.60
2023-03-04T13:43:39.596Z,13.87
2023-03-04T13:46:30.122Z,13.63
2023-03-04T13:49:03.790Z,14.23
2023-03-04T13:51:33.442Z,12.80
2023-03-04T13:54:16.992Z,13.70
2023-03-04T13:56:46.741Z,14.20
2023-03-04T13:59:29.599Z,12.83
2023-03-04T14:02:14.891Z,18.07
2023-03-04T14:04:44.257Z,14.73
2023-03-04T14:07:21.687Z,17.67
2023-03-04T14:09:59.039Z,15.77
2023-03-04T14:12:28.542Z,14.27
2023-03-04T14:15:00.320Z,14.07
2023-03-04T14:17:31.634Z,15.40
2023-03-04T14:20:00.947Z,25.00
2023-03-04T14:22:31.447Z,18.33
2023-03-04T14:25:04.894Z,18.93
2023-03-04T14:27:36.184Z,16.20
2023-03-04T14:30:08.817Z,20.03
2023-03-04T14:32:36.885Z,16.63
2023-03-04T14:35:08.059Z,16.07
2023-03-04T14:37:44.661Z,19.87
2023-03-04T14:40:21.823Z,19.60
2023-03-04T14:42:53.453Z,18.03
2023-03-04T14:45:24.591Z,24.40
2023-03-04T14:47:56.696Z,21.70
2023-03-04T14:50:24.790Z,17.53
2023-03-04T14:53:11.887Z,19.93
2023-03-04T14:55:39.797Z,23.73
2023-03-04T14:58:10.039Z,21.10
2023-03-04T15:00:41.200Z,25.73
2023-03-04T15:03:22.049Z,19.50
2023-03-04T15:05:52.744Z,20.03
2023-03-04T15:08:24.721Z,21.23
2023-03-04T15:10:56.696Z,18.27
2023-03-04T15:13:40.158Z,20.30
2023-03-04T15:16:11.293Z,18.37
2023-03-04T15:18:39.744Z,21.70
2023-03-04T15:21:31.595Z,24.03
2023-03-04T15:23:59.856Z,28.13
2023-03-04T15:26:28.068Z,20.67
2023-03-04T15:28:56.206Z,19.80
2023-03-04T15:31:26.973Z,25.00
2023-03-04T15:33:54.935Z,23.67
2023-03-04T15:36:24.493Z,25.57
2023-03-04T15:38:54.485Z,23.40
2023-03-04T15:41:25.086Z,23.63
2023-03-04T15:43:54.731Z,23.70
2023-03-04T15:46:23.172Z,35.00
2023-03-04T15:48:52.949Z,24.50
2023-03-04T15:51:22.756Z,24.00
2023-03-04T15:53:53.913Z,20.30
2023-03-04T15:56:25.293Z,24.53
2023-03-04T15:58:56.576Z,25.87
2023-03-04T16:01:25.571Z,21.17
2023-03-04T16:03:55.172Z,23.67
2023-03-04T16:06:25.297Z,23.87
2023-03-04T16:08:54.005Z,21.90
2023-03-04T16:11:24.261Z,21.50
2023-03-04T16:13:52.740Z,20.07
2023-03-04T16:16:21.222Z,21.57
2023-03-04T16:18:49.747Z,23.90
2023-03-04T16:21:23.185Z,25.13
2023-03-04T16:23:53.036Z,20.87
2023-03-04T16:26:23.191Z,20.30
2023-03-04T16:28:51.450Z,20.60
2023-03-04T16:31:20.577Z,23.33
2023-03-04T16:33:50.314Z,22.50
2023-03-04T16:36:23.307Z,29.30
2023-03-04T16:38:52.527Z,23.70
2023-03-04T16:41:25.975Z,23.80
2023-03-04T16:43:56.003Z,26.30
2023-03-04T16:46:24.991Z,30.23
2023-03-04T16:48:53.172Z,31.10
2023-03-04T16:51:23.852Z,20.97
2023-03-04T16:53:56.168Z,20.00
2023-03-04T16:56:24.841Z,20.97
2023-03-04T16:58:54.075Z,21.30
2023-03-04T17:01:24.730Z,16.77
2023-03-04T17:03:53.433Z,17.77
2023-03-04T17:06:24.066Z,21.30
2023-03-04T17:08:52.611Z,31.00
2023-03-04T17:11:22.902Z,21.33
2023-03-04T17:13:51.530Z,19.80
2023-03-04T17:16:20.135Z,21.20
2023-03-04T17:18:48.300Z,26.23
2023-03-04T17:21:18.250Z,21.43
2023-03-04T17:23:47.545Z,15.80
2023-03-04T17:26:16.656Z,18.87
2023-03-04T17:28:44.603Z,20.27
2023-03-04T17:31:13.710Z,21.83
2023-03-04T17:33:43.698Z,25.57
2023-03-04T17:36:13.009Z,18.30
2023-03-04T17:38:41.275Z,26.37
2023-03-04T17:41:13.239Z,26.90
2023-03-04T17:43:44.334Z,17.00
2023-03-04T17:46:14.842Z,18.23
2023-03-04T17:48:43.558Z,19.13
2023-03-04T17:51:12.617Z,18.00
2023-03-04T17:53:40.865Z,15.30
2023-03-04T17:56:12.161Z,22.63
2023-03-04T17:58:40.728Z,16.90
2023-03-04T18:01:16.815Z,23.43
2023-03-04T18:03:44.796Z,20.00
2023-03-04T18:06:13.232Z,18.13
2023-03-04T18:08:41.402Z,14.83
2023-03-04T18:11:11.133Z,15.80
2023-03-04T18:13:39.470Z,20.97
2023-03-04T18:16:08.960Z,16.30
2023-03-04T18:18:37.634Z,12.60
2023-03-04T18:21:06.753Z,17.67
2023-03-04T18:23:35.680Z,18.80
2023-03-04T18:26:04.431Z,30.93
2023-03-04T18:28:33.815Z,16.10
2023-03-04T18:31:04.922Z,19.10
2023-03-04T18:33:34.026Z,12.83
2023-03-04T18:36:03.771Z,14.00
2023-03-04T18:38:31.881Z,15.77
2023-03-04T18:41:00.778Z,22.40
2023-03-04T18:43:29.003Z,14.33
2023-03-04T18:46:09.565Z,15.60
2023-03-04T18:48:44.484Z,13.63
2023-03-04T18:51:12.502Z,14.97
2023-03-04T18:53:40.806Z,15.20
2023-03-04T18:56:13.817Z,19.40
2023-03-04T18:58:44.828Z,17.80
2023-03-04T19:01:16.792Z,15.27
2023-03-04T19:03:45.877Z,16.93
2023-03-04T19:06:13.905Z,19.57
2023-03-04T19:08:42.006Z,15.47
2023-03-04T19:11:09.954Z,19.27
2023-03-04T19:13:37.992Z,18.93
2023-03-04T19:16:06.644Z,16.83
2023-03-04T19:18:36.031Z,16.80
2023-03-04T19:21:05.398Z,20.40
2023-03-04T19:23:33.675Z,14.17
2023-03-04T19:26:01.988Z,25.70
2023-03-04T19:28:29.989Z,17.20
2023-03-04T19:30:59.217Z,14.47
2023-03-04T19:33:27.420Z,15.20
2023-03-04T19:35:56.716Z,16.53
2023-03-04T19:38:24.710Z,18.17
2023-03-04T19:40:52.770Z,16.00
2023-03-04T19:43:20.715Z,22.70
2023-03-04T19:45:54.330Z,19.63
2023-03-04T19:48:22.800Z,19.13
2023-03-04T19:50:51.659Z,18.50
2023-03-04T19:53:20.990Z,18.63
2023-03-04T19:55:49.946Z,24.37
2023-03-04T19:58:18.148Z,17.93
2023-03-04T20:00:46.496Z,19.97
2023-03-04T20:03:14.962Z,18.67
2023-03-04T20:05:43.132Z,15.40
2023-03-04T20:08:11.132Z,11.63
2023-03-04T20:10:41.060Z,14.97
2023-03-04T20:13:10.216Z,18.87
2023-03-04T20:15:38.480Z,23.73
2023-03-04T20:18:06.681Z,14.60
2023-03-04T20:20:34.955Z,14.97
2023-03-04T20:23:02.878Z,18.10
2023-03-04T20:25:31.919Z,18.13
2023-03-04T20:28:01.241Z,15.47
2023-03-04T20:30:29.292Z,18.07
2023-03-04T20:32:57.294Z,16.33
2023-03-04T20:35:25.257Z,15.37
2023-03-04T20:37:53.285Z,15.13
2023-03-04T20:40:21.422Z,14.87
2023-03-04T20:42:49.390Z,14.60
2023-03-04T20:45:20.229Z,17.43
2023-03-04T20:47:48.674Z,11.67
2023-03-04T20:50:17.764Z,15.53
2023-03-04T20:52:45.974Z,13.30
2023-03-04T20:55:13.962Z,13.30
2023-03-04T20:57:41.911Z,15.40
2023-03-04T21:00:11.808Z,14.97
2023-03-04T21:02:41.284Z,14.07
2023-03-04T21:05:09.840Z,17.30
2023-03-04T21:07:37.813Z,13.00
2023-03-04T21:10:06.437Z,14.30
2023-03-04T21:12:34.484Z,17.50
2023-03-04T21:15:02.430Z,14.47
2023-03-04T21:17:30.378Z,16.10
2023-03-04T21:19:59.685Z,13.10
2023-03-04T21:22:27.872Z,14.83
2023-03-04T21:24:55.864Z,23.40
2023-03-04T21:27:24.137Z,15.40
2023-03-04T21:29:52.781Z,12.10
2023-03-04T21:32:25.497Z,12.50
2023-03-04T21:34:55.115Z,13.30
2023-03-04T21:37:25.958Z,11.53
2023-03-04T21:39:54.243Z,19.33
2023-03-04T21:42:22.160Z,17.40
2023-03-04T21:44:51.490Z,20.90
2023-03-04T21:47:19.896Z,16.50
2023-03-04T21:49:48.350Z,12.97
2023-03-04T21:52:16.462Z,14.50
2023-03-04T21:54:45.938Z,13.77
2023-03-04T21:57:14.330Z,20.00
2023-03-04T21:59:42.737Z,14.60
2023-03-04T22:02:16.189Z,11.23
2023-03-04T22:04:44.134Z,15.20
2023-03-04T22:07:12.230Z,12.37
2023-03-04T22:09:40.480Z,11.10
2023-03-04T22:12:09.993Z,11.60
2023-03-04T22:14:38.041Z,13.20
2023-03-04T22:17:06.252Z,16.90
2023-03-04T22:19:34.336Z,12.27
2023-03-04T22:22:02.283Z,12.03
2023-03-04T22:24:30.215Z,11.43
2023-03-04T22:26:59.810Z,14.90
2023-03-04T22:29:29.768Z,11.67
2023-03-04T22:31:57.855Z,13.73
2023-03-04T22:34:25.892Z,12.63
2023-03-04T22:36:53.791Z,11.87
2023-03-04T22:39:22.959Z,15.33
2023-03-04T22:41:50.969Z,11.83
2023-03-04T22:44:19.140Z,13.63
2023-03-04T22:46:48.546Z,12.47
2023-03-04T22:49:16.633Z,13.50
2023-03-04T22:51:45.500Z,12.63
2023-03-04T22:54:15.496Z,22.83
2023-03-04T22:56:43.490Z,12.97
2023-03-04T22:59:11.797Z,17.20
2023-03-04T23:01:39.907Z,15.67
2023-03-04T23:04:09.209Z,12.63
2023-03-04T23:06:37.625Z,14.03
2023-03-04T23:09:05.763Z,13.20
2023-03-04T23:11:36.189Z,13.47
2023-03-04T23:14:06.907Z,14.17
2023-03-04T23:16:37.325Z,10.53
2023-03-04T23:19:05.962Z,11.33
2023-03-04T23:21:36.069Z,14.40
2023-03-04T23:24:05.433Z,9.70
2023-03-04T23:26:35.796Z,11.50
2023-03-04T23:29:06.020Z,12.83
2023-03-04T23:31:35.369Z,14.97
2023-03-04T23:34:04.368Z,11.77
2023-03-04T23:36:36.031Z,13.47
2023-03-04T23:39:05.229Z,10.10
2023-03-04T23:41:34.274Z,10.33
2023-03-04T23:44:02.989Z,13.20
2023-03-04T23:46:31.411Z,11.57
2023-03-04T23:48:59.660Z,10.40
2023-03-04T23:51:30.112Z,10.47
2023-03-04T23:54:00.261Z,9.97
2023-03-04T23:56:30.356Z,16.80
2023-03-04T23:58:59.664Z,13.83
